sensor_id;sensor_type;location;lat;lon;timestamp;pressure;altitude;pressure_sealevel;temperature
15626;BMP180;7912;51.376;6.126;2023-05-14T00:00:28;101569.00;;;17.70
15626;BMP180;7912;51.376;6.126;2023-05-14T00:02:56;101568.00;;;17.80
15626;BMP180;7912;51.376;6.126;2023-05-14T00:05:23;101572.00;;;17.80
15626;BMP180;7912;51.376;6.126;2023-05-14T00:07:50;101566.00;;;17.80
15626;BMP180;7912;51.376;6.126;2023-05-14T00:10:18;101553.00;;;17.80
15626;BMP180;7912;51.376;6.126;2023-05-14T00:12:50;101565.00;;;17.80
15626;BMP180;7912;51.376;6.126;2023-05-14T00:15:18;101566.00;;;17.80
15626;BMP180;7912;51.376;6.126;2023-05-14T00:17:45;101559.00;;;17.80
15626;BMP180;7912;51.376;6.126;2023-05-14T00:20:13;101554.00;;;17.90
15626;BMP180;7912;51.376;6.126;2023-05-14T00:22:40;101555.00;;;17.90
15626;BMP180;7912;51.376;6.126;2023-05-14T00:25:08;101552.00;;;17.90
15626;BMP180;7912;51.376;6.126;2023-05-14T00:27:35;101555.00;;;17.90
15626;BMP180;7912;51.376;6.126;2023-05-14T00:30:06;101541.00;;;18.00
15626;BMP180;7912;51.376;6.126;2023-05-14T00:32:33;101543.00;;;17.90
15626;BMP180;7912;51.376;6.126;2023-05-14T00:35:01;101552.00;;;18.00
15626;BMP180;7912;51.376;6.126;2023-05-14T00:37:30;101535.00;;;18.00
15626;BMP180;7912;51.376;6.126;2023-05-14T00:39:57;101524.00;;;18.00
15626;BMP180;7912;51.376;6.126;2023-05-14T00:42:26;101539.00;;;18.00
15626;BMP180;7912;51.376;6.126;2023-05-14T00:44:53;101530.00;;;18.00
15626;BMP180;7912;51.376;6.126;2023-05-14T00:47:20;101515.00;;;17.90
15626;BMP180;7912;51.376;6.126;2023-05-14T00:49:48;101525.00;;;17.90
15626;BMP180;7912;51.376;6.126;2023-05-14T00:52:16;101522.00;;;17.90
15626;BMP180;7912;51.376;6.126;2023-05-14T00:54:46;101524.00;;;17.80
15626;BMP180;7912;51.376;6.126;2023-05-14T00:57:14;101528.00;;;17.80
15626;BMP180;7912;51.376;6.126;2023-05-14T00:59:41;101521.00;;;17.80
15626;BMP180;7912;51.376;6.126;2023-05-14T01:02:09;101516.00;;;17.70
15626;BMP180;7912;51.376;6.126;2023-05-14T01:04:37;101519.00;;;17.70
15626;BMP180;7912;51.376;6.126;2023-05-14T01:10:27;101519.00;;;17.60
15626;BMP180;7912;51.376;6.126;2023-05-14T01:13:24;101523.00;;;17.50
15626;BMP180;7912;51.376;6.126;2023-05-14T01:15:55;101517.00;;;17.50
15626;BMP180;7912;51.376;6.126;2023-05-14T01:18:27;101515.00;;;17.40
15626;BMP180;7912;51.376;6.126;2023-05-14T01:20:54;101510.00;;;17.40
15626;BMP180;7912;51.376;6.126;2023-05-14T01:23:21;101505.00;;;17.40
15626;BMP180;7912;51.376;6.126;2023-05-14T01:25:48;101519.00;;;17.40
15626;BMP180;7912;51.376;6.126;2023-05-14T01:28:27;101513.00;;;17.30
15626;BMP180;7912;51.376;6.126;2023-05-14T01:31:20;101528.00;;;17.30
15626;BMP180;7912;51.376;6.126;2023-05-14T01:33:52;101507.00;;;17.30
15626;BMP180;7912;51.376;6.126;2023-05-14T01:36:21;101499.00;;;17.30
15626;BMP180;7912;51.376;6.126;2023-05-14T01:38:50;101507.00;;;17.20
15626;BMP180;7912;51.376;6.126;2023-05-14T01:41:18;101510.00;;;17.20
15626;BMP180;7912;51.376;6.126;2023-05-14T01:43:46;101515.00;;;17.20
15626;BMP180;7912;51.376;6.126;2023-05-14T01:46:18;101511.00;;;17.20
15626;BMP180;7912;51.376;6.126;2023-05-14T01:48:45;101514.00;;;17.10
15626;BMP180;7912;51.376;6.126;2023-05-14T01:51:12;101513.00;;;17.10
15626;BMP180;7912;51.376;6.126;2023-05-14T01:53:40;101507.00;;;17.10
15626;BMP180;7912;51.376;6.126;2023-05-14T01:56:07;101514.00;;;17.10
15626;BMP180;7912;51.376;6.126;2023-05-14T01:58:35;101506.00;;;17.10
15626;BMP180;7912;51.376;6.126;2023-05-14T02:01:02;101498.00;;;17.00
15626;BMP180;7912;51.376;6.126;2023-05-14T02:03:29;101506.00;;;17.00
15626;BMP180;7912;51.376;6.126;2023-05-14T02:05:57;101503.00;;;17.00
15626;BMP180;7912;51.376;6.126;2023-05-14T02:08:24;101506.00;;;16.90
15626;BMP180;7912;51.376;6.126;2023-05-14T02:10:51;101488.00;;;16.80
15626;BMP180;7912;51.376;6.126;2023-05-14T02:13:18;101497.00;;;16.80
15626;BMP180;7912;51.376;6.126;2023-05-14T02:15:46;101502.00;;;16.70
15626;BMP180;7912;51.376;6.126;2023-05-14T02:18:13;101515.00;;;16.70
15626;BMP180;7912;51.376;6.126;2023-05-14T02:20:40;101508.00;;;16.60
15626;BMP180;7912;51.376;6.126;2023-05-14T02:23:07;101508.00;;;16.60
15626;BMP180;7912;51.376;6.126;2023-05-14T02:25:34;101511.00;;;16.50
15626;BMP180;7912;51.376;6.126;2023-05-14T02:28:01;101511.00;;;16.40
15626;BMP180;7912;51.376;6.126;2023-05-14T02:30:29;101513.00;;;16.40
15626;BMP180;7912;51.376;6.126;2023-05-14T02:32:57;101505.00;;;16.40
15626;BMP180;7912;51.376;6.126;2023-05-14T02:35:24;101506.00;;;16.30
15626;BMP180;7912;51.376;6.126;2023-05-14T02:37:51;101497.00;;;16.30
15626;BMP180;7912;51.376;6.126;2023-05-14T02:40:20;101505.00;;;16.30
15626;BMP180;7912;51.376;6.126;2023-05-14T02:42:47;101502.00;;;16.30
15626;BMP180;7912;51.376;6.126;2023-05-14T02:45:14;101509.00;;;16.20
15626;BMP180;7912;51.376;6.126;2023-05-14T02:47:42;101502.00;;;16.20
15626;BMP180;7912;51.376;6.126;2023-05-14T02:50:09;101509.00;;;16.10
15626;BMP180;7912;51.376;6.126;2023-05-14T02:52:37;101503.00;;;16.10
15626;BMP180;7912;51.376;6.126;2023-05-14T02:55:05;101494.00;;;16.10
15626;BMP180;7912;51.376;6.126;2023-05-14T02:57:32;101502.00;;;16.00
15626;BMP180;7912;51.376;6.126;2023-05-14T02:59:59;101491.00;;;16.00
15626;BMP180;7912;51.376;6.126;2023-05-14T03:02:27;101497.00;;;15.90
15626;BMP180;7912;51.376;6.126;2023-05-14T03:04:55;101501.00;;;15.90
15626;BMP180;7912;51.376;6.126;2023-05-14T03:07:22;101503.00;;;15.90
15626;BMP180;7912;51.376;6.126;2023-05-14T03:09:49;101496.00;;;15.80
15626;BMP180;7912;51.376;6.126;2023-05-14T03:12:17;101494.00;;;15.90
15626;BMP180;7912;51.376;6.126;2023-05-14T03:14:44;101496.00;;;15.80
15626;BMP180;7912;51.376;6.126;2023-05-14T03:17:11;101488.00;;;15.80
15626;BMP180;7912;51.376;6.126;2023-05-14T03:19:38;101489.00;;;15.80
15626;BMP180;7912;51.376;6.126;2023-05-14T03:22:06;101487.00;;;15.70
15626;BMP180;7912;51.376;6.126;2023-05-14T03:24:34;101490.00;;;15.60
15626;BMP180;7912;51.376;6.126;2023-05-14T03:27:01;101489.00;;;15.60
15626;BMP180;7912;51.376;6.126;2023-05-14T03:29:28;101489.00;;;15.60
15626;BMP180;7912;51.376;6.126;2023-05-14T03:31:56;101480.00;;;15.60
15626;BMP180;7912;51.376;6.126;2023-05-14T03:34:23;101476.00;;;15.50
15626;BMP180;7912;51.376;6.126;2023-05-14T03:36:50;101483.00;;;15.50
15626;BMP180;7912;51.376;6.126;2023-05-14T03:39:18;101487.00;;;15.40
15626;BMP180;7912;51.376;6.126;2023-05-14T03:41:46;101487.00;;;15.40
15626;BMP180;7912;51.376;6.126;2023-05-14T03:44:14;101488.00;;;15.40
15626;BMP180;7912;51.376;6.126;2023-05-14T03:47:00;101488.00;;;15.30
15626;BMP180;7912;51.376;6.126;2023-05-14T03:49:27;101479.00;;;15.30
15626;BMP180;7912;51.376;6.126;2023-05-14T03:51:54;101480.00;;;15.20
15626;BMP180;7912;51.376;6.126;2023-05-14T03:54:23;101476.00;;;15.20
15626;BMP180;7912;51.376;6.126;2023-05-14T03:56:50;101475.00;;;15.20
15626;BMP180;7912;51.376;6.126;2023-05-14T03:59:17;101481.00;;;15.10
15626;BMP180;7912;51.376;6.126;2023-05-14T04:01:44;101480.00;;;15.10
15626;BMP180;7912;51.376;6.126;2023-05-14T04:04:11;101480.00;;;15.00
15626;BMP180;7912;51.376;6.126;2023-05-14T04:06:39;101473.00;;;15.00
15626;BMP180;7912;51.376;6.126;2023-05-14T04:09:06;101479.00;;;15.00
15626;BMP180;7912;51.376;6.126;2023-05-14T04:11:33;101469.00;;;15.00
15626;BMP180;7912;51.376;6.126;2023-05-14T04:14:00;101483.00;;;15.00
15626;BMP180;7912;51.376;6.126;2023-05-14T04:16:28;101474.00;;;15.00
15626;BMP180;7912;51.376;6.126;2023-05-14T04:18:55;101474.00;;;15.00
15626;BMP180;7912;51.376;6.126;2023-05-14T04:21:22;101472.00;;;15.00
15626;BMP180;7912;51.376;6.126;2023-05-14T04:23:49;101466.00;;;15.00
15626;BMP180;7912;51.376;6.126;2023-05-14T04:26:17;101473.00;;;15.10
15626;BMP180;7912;51.376;6.126;2023-05-14T04:28:44;101470.00;;;15.00
15626;BMP180;7912;51.376;6.126;2023-05-14T04:31:11;101470.00;;;15.10
15626;BMP180;7912;51.376;6.126;2023-05-14T04:33:39;101468.00;;;15.10
15626;BMP180;7912;51.376;6.126;2023-05-14T04:36:06;101471.00;;;15.10
15626;BMP180;7912;51.376;6.126;2023-05-14T04:38:34;101472.00;;;15.10
15626;BMP180;7912;51.376;6.126;2023-05-14T04:41:01;101472.00;;;15.10
15626;BMP180;7912;51.376;6.126;2023-05-14T04:43:29;101467.00;;;15.10
15626;BMP180;7912;51.376;6.126;2023-05-14T04:45:56;101465.00;;;15.20
15626;BMP180;7912;51.376;6.126;2023-05-14T04:48:23;101474.00;;;15.20
15626;BMP180;7912;51.376;6.126;2023-05-14T04:50:50;101458.00;;;15.20
15626;BMP180;7912;51.376;6.126;2023-05-14T04:53:18;101469.00;;;15.20
15626;BMP180;7912;51.376;6.126;2023-05-14T04:55:45;101470.00;;;15.30
15626;BMP180;7912;51.376;6.126;2023-05-14T04:58:12;101470.00;;;15.30
15626;BMP180;7912;51.376;6.126;2023-05-14T05:00:39;101462.00;;;15.30
15626;BMP180;7912;51.376;6.126;2023-05-14T05:03:06;101482.00;;;15.30
15626;BMP180;7912;51.376;6.126;2023-05-14T05:05:34;101473.00;;;15.40
15626;BMP180;7912;51.376;6.126;2023-05-14T05:08:02;101473.00;;;15.40
15626;BMP180;7912;51.376;6.126;2023-05-14T05:10:29;101471.00;;;15.50
15626;BMP180;7912;51.376;6.126;2023-05-14T05:12:56;101473.00;;;15.50
15626;BMP180;7912;51.376;6.126;2023-05-14T05:15:23;101476.00;;;15.60
15626;BMP180;7912;51.376;6.126;2023-05-14T05:17:52;101485.00;;;15.60
15626;BMP180;7912;51.376;6.126;2023-05-14T05:20:19;101464.00;;;15.70
15626;BMP180;7912;51.376;6.126;2023-05-14T05:22:47;101476.00;;;15.80
15626;BMP180;7912;51.376;6.126;2023-05-14T05:25:14;101474.00;;;15.80
15626;BMP180;7912;51.376;6.126;2023-05-14T05:27:41;101473.00;;;15.80
15626;BMP180;7912;51.376;6.126;2023-05-14T05:30:09;101467.00;;;15.90
15626;BMP180;7912;51.376;6.126;2023-05-14T05:32:37;101471.00;;;16.00
15626;BMP180;7912;51.376;6.126;2023-05-14T05:35:05;101482.00;;;16.10
15626;BMP180;7912;51.376;6.126;2023-05-14T05:37:32;101475.00;;;16.10
15626;BMP180;7912;51.376;6.126;2023-05-14T05:39:59;101478.00;;;16.20
15626;BMP180;7912;51.376;6.126;2023-05-14T05:42:26;101483.00;;;16.30
15626;BMP180;7912;51.376;6.126;2023-05-14T05:44:54;101474.00;;;16.30
15626;BMP180;7912;51.376;6.126;2023-05-14T05:47:22;101478.00;;;16.30
15626;BMP180;7912;51.376;6.126;2023-05-14T05:49:49;101476.00;;;16.40
15626;BMP180;7912;51.376;6.126;2023-05-14T05:52:16;101466.00;;;16.50
15626;BMP180;7912;51.376;6.126;2023-05-14T05:54:43;101471.00;;;16.50
15626;BMP180;7912;51.376;6.126;2023-05-14T05:57:11;101474.00;;;16.60
15626;BMP180;7912;51.376;6.126;2023-05-14T05:59:38;101468.00;;;16.70
15626;BMP180;7912;51.376;6.126;2023-05-14T06:02:05;101480.00;;;16.80
15626;BMP180;7912;51.376;6.126;2023-05-14T06:04:33;101481.00;;;16.80
15626;BMP180;7912;51.376;6.126;2023-05-14T06:07:00;101475.00;;;16.90
15626;BMP180;7912;51.376;6.126;2023-05-14T06:09:27;101475.00;;;17.00
15626;BMP180;7912;51.376;6.126;2023-05-14T06:11:54;101474.00;;;17.10
15626;BMP180;7912;51.376;6.126;2023-05-14T06:14:22;101480.00;;;17.10
15626;BMP180;7912;51.376;6.126;2023-05-14T06:16:49;101475.00;;;17.20
15626;BMP180;7912;51.376;6.126;2023-05-14T06:19:54;101474.00;;;17.20
15626;BMP180;7912;51.376;6.126;2023-05-14T06:22:21;101490.00;;;17.30
15626;BMP180;7912;51.376;6.126;2023-05-14T06:24:48;101477.00;;;17.40
15626;BMP180;7912;51.376;6.126;2023-05-14T06:27:15;101471.00;;;17.50
15626;BMP180;7912;51.376;6.126;2023-05-14T06:29:43;101476.00;;;17.70
15626;BMP180;7912;51.376;6.126;2023-05-14T06:32:10;101481.00;;;17.90
15626;BMP180;7912;51.376;6.126;2023-05-14T06:34:41;101474.00;;;18.20
15626;BMP180;7912;51.376;6.126;2023-05-14T06:37:09;101474.00;;;18.70
15626;BMP180;7912;51.376;6.126;2023-05-14T06:39:37;101474.00;;;19.10
15626;BMP180;7912;51.376;6.126;2023-05-14T06:42:05;101469.00;;;19.50
15626;BMP180;7912;51.376;6.126;2023-05-14T06:44:33;101461.00;;;20.00
15626;BMP180;7912;51.376;6.126;2023-05-14T06:47:00;101465.00;;;20.60
15626;BMP180;7912;51.376;6.126;2023-05-14T06:49:27;101463.00;;;21.10
15626;BMP180;7912;51.376;6.126;2023-05-14T06:51:55;101471.00;;;21.50
15626;BMP180;7912;51.376;6.126;2023-05-14T06:54:22;101463.00;;;21.90
15626;BMP180;7912;51.376;6.126;2023-05-14T06:56:49;101464.00;;;22.40
15626;BMP180;7912;51.376;6.126;2023-05-14T06:59:16;101456.00;;;23.00
15626;BMP180;7912;51.376;6.126;2023-05-14T07:01:43;101444.00;;;23.70
15626;BMP180;7912;51.376;6.126;2023-05-14T07:04:11;101448.00;;;24.40
15626;BMP180;7912;51.376;6.126;2023-05-14T07:06:38;101452.00;;;25.00
15626;BMP180;7912;51.376;6.126;2023-05-14T07:09:06;101453.00;;;25.50
15626;BMP180;7912;51.376;6.126;2023-05-14T07:11:34;101436.00;;;25.80
15626;BMP180;7912;51.376;6.126;2023-05-14T07:14:01;101434.00;;;26.20
15626;BMP180;7912;51.376;6.126;2023-05-14T07:16:28;101442.00;;;26.70
15626;BMP180;7912;51.376;6.126;2023-05-14T07:18:56;101441.00;;;27.40
15626;BMP180;7912;51.376;6.126;2023-05-14T07:21:23;101437.00;;;28.20
15626;BMP180;7912;51.376;6.126;2023-05-14T07:23:50;101434.00;;;28.80
15626;BMP180;7912;51.376;6.126;2023-05-14T07:26:19;101443.00;;;29.30
15626;BMP180;7912;51.376;6.126;2023-05-14T07:28:47;101446.00;;;29.50
15626;BMP180;7912;51.376;6.126;2023-05-14T07:31:14;101446.00;;;29.90
15626;BMP180;7912;51.376;6.126;2023-05-14T07:33:42;101433.00;;;30.40
15626;BMP180;7912;51.376;6.126;2023-05-14T07:36:09;101431.00;;;30.50
15626;BMP180;7912;51.376;6.126;2023-05-14T07:38:37;101431.00;;;30.50
15626;BMP180;7912;51.376;6.126;2023-05-14T07:41:04;101433.00;;;30.40
15626;BMP180;7912;51.376;6.126;2023-05-14T07:43:32;101439.00;;;30.50
15626;BMP180;7912;51.376;6.126;2023-05-14T07:45:59;101436.00;;;30.70
15626;BMP180;7912;51.376;6.126;2023-05-14T07:48:26;101432.00;;;31.00
15626;BMP180;7912;51.376;6.126;2023-05-14T07:50:54;101427.00;;;31.40
15626;BMP180;7912;51.376;6.126;2023-05-14T07:53:21;101430.00;;;31.80
15626;BMP180;7912;51.376;6.126;2023-05-14T07:55:49;101435.00;;;31.90
15626;BMP180;7912;51.376;6.126;2023-05-14T07:58:16;101431.00;;;31.70
15626;BMP180;7912;51.376;6.126;2023-05-14T08:00:43;101432.00;;;31.70
15626;BMP180;7912;51.376;6.126;2023-05-14T08:03:10;101434.00;;;31.80
15626;BMP180;7912;51.376;6.126;2023-05-14T08:05:38;101435.00;;;31.90
15626;BMP180;7912;51.376;6.126;2023-05-14T08:08:05;101440.00;;;31.80
15626;BMP180;7912;51.376;6.126;2023-05-14T08:10:32;101437.00;;;31.90
15626;BMP180;7912;51.376;6.126;2023-05-14T08:12:59;101435.00;;;31.80
15626;BMP180;7912;51.376;6.126;2023-05-14T08:15:27;101440.00;;;31.50
15626;BMP180;7912;51.376;6.126;2023-05-14T08:17:54;101445.00;;;31.20
15626;BMP180;7912;51.376;6.126;2023-05-14T08:20:21;101449.00;;;30.80
15626;BMP180;7912;51.376;6.126;2023-05-14T08:22:50;101453.00;;;30.40
15626;BMP180;7912;51.376;6.126;2023-05-14T08:25:17;101451.00;;;30.40
15626;BMP180;7912;51.376;6.126;2023-05-14T08:27:44;101449.00;;;30.30
15626;BMP180;7912;51.376;6.126;2023-05-14T08:30:12;101457.00;;;29.90
15626;BMP180;7912;51.376;6.126;2023-05-14T08:32:39;101460.00;;;29.50
15626;BMP180;7912;51.376;6.126;2023-05-14T08:35:07;101462.00;;;29.40
15626;BMP180;7912;51.376;6.126;2023-05-14T08:37:34;101457.00;;;29.60
15626;BMP180;7912;51.376;6.126;2023-05-14T08:40:02;101455.00;;;29.80
15626;BMP180;7912;51.376;6.126;2023-05-14T08:42:30;101450.00;;;30.30
15626;BMP180;7912;51.376;6.126;2023-05-14T08:45:02;101447.00;;;30.80
15626;BMP180;7912;51.376;6.126;2023-05-14T08:47:32;101434.00;;;31.10
15626;BMP180;7912;51.376;6.126;2023-05-14T08:50:05;101440.00;;;31.50
15626;BMP180;7912;51.376;6.126;2023-05-14T08:52:34;101439.00;;;31.70
15626;BMP180;7912;51.376;6.126;2023-05-14T08:55:05;101427.00;;;32.00
15626;BMP180;7912;51.376;6.126;2023-05-14T08:57:34;101431.00;;;32.30
15626;BMP180;7912;51.376;6.126;2023-05-14T09:00:03;101421.00;;;32.40
15626;BMP180;7912;51.376;6.126;2023-05-14T09:02:43;101419.00;;;32.50
15626;BMP180;7912;51.376;6.126;2023-05-14T09:05:16;101426.00;;;32.70
15626;BMP180;7912;51.376;6.126;2023-05-14T09:07:44;101422.00;;;32.90
15626;BMP180;7912;51.376;6.126;2023-05-14T09:10:11;101435.00;;;33.00
15626;BMP180;7912;51.376;6.126;2023-05-14T09:12:40;101429.00;;;32.50
15626;BMP180;7912;51.376;6.126;2023-05-14T09:15:08;101425.00;;;32.00
15626;BMP180;7912;51.376;6.126;2023-05-14T09:17:35;101428.00;;;31.40
15626;BMP180;7912;51.376;6.126;2023-05-14T09:20:03;101434.00;;;30.90
15626;BMP180;7912;51.376;6.126;2023-05-14T09:22:31;101433.00;;;30.50
15626;BMP180;7912;51.376;6.126;2023-05-14T09:25:06;101444.00;;;30.30
15626;BMP180;7912;51.376;6.126;2023-05-14T09:27:55;101437.00;;;30.30
15626;BMP180;7912;51.376;6.126;2023-05-14T09:30:25;101431.00;;;30.60
15626;BMP180;7912;51.376;6.126;2023-05-14T09:32:53;101434.00;;;30.60
15626;BMP180;7912;51.376;6.126;2023-05-14T09:35:23;101424.00;;;30.40
15626;BMP180;7912;51.376;6.126;2023-05-14T09:37:53;101427.00;;;30.10
15626;BMP180;7912;51.376;6.126;2023-05-14T09:40:22;101430.00;;;29.70
15626;BMP180;7912;51.376;6.126;2023-05-14T09:42:50;101429.00;;;29.60
15626;BMP180;7912;51.376;6.126;2023-05-14T09:45:18;101429.00;;;29.50
15626;BMP180;7912;51.376;6.126;2023-05-14T09:47:45;101428.00;;;29.50
15626;BMP180;7912;51.376;6.126;2023-05-14T09:50:13;101433.00;;;29.90
15626;BMP180;7912;51.376;6.126;2023-05-14T09:52:41;101423.00;;;30.20
15626;BMP180;7912;51.376;6.126;2023-05-14T09:55:08;101425.00;;;30.60
15626;BMP180;7912;51.376;6.126;2023-05-14T09:57:35;101418.00;;;30.80
15626;BMP180;7912;51.376;6.126;2023-05-14T10:00:03;101417.00;;;31.10
15626;BMP180;7912;51.376;6.126;2023-05-14T10:02:39;101414.00;;;31.60
15626;BMP180;7912;51.376;6.126;2023-05-14T10:05:10;101414.00;;;31.80
15626;BMP180;7912;51.376;6.126;2023-05-14T10:07:45;101412.00;;;32.10
15626;BMP180;7912;51.376;6.126;2023-05-14T10:10:18;101401.00;;;32.40
15626;BMP180;7912;51.376;6.126;2023-05-14T10:12:56;101401.00;;;32.60
15626;BMP180;7912;51.376;6.126;2023-05-14T10:15:47;101400.00;;;33.10
15626;BMP180;7912;51.376;6.126;2023-05-14T10:18:23;101405.00;;;33.60
15626;BMP180;7912;51.376;6.126;2023-05-14T10:21:05;101400.00;;;33.80
15626;BMP180;7912;51.376;6.126;2023-05-14T10:23:33;101399.00;;;34.00
15626;BMP180;7912;51.376;6.126;2023-05-14T10:26:04;101396.00;;;34.20
15626;BMP180;7912;51.376;6.126;2023-05-14T10:28:32;101396.00;;;34.30
15626;BMP180;7912;51.376;6.126;2023-05-14T10:30:59;101387.00;;;34.20
15626;BMP180;7912;51.376;6.126;2023-05-14T10:33:27;101387.00;;;34.20
15626;BMP180;7912;51.376;6.126;2023-05-14T10:36:05;101382.00;;;34.60
15626;BMP180;7912;51.376;6.126;2023-05-14T10:38:35;101380.00;;;35.20
15626;BMP180;7912;51.376;6.126;2023-05-14T10:41:13;101372.00;;;35.80
15626;BMP180;7912;51.376;6.126;2023-05-14T10:43:44;101376.00;;;36.00
15626;BMP180;7912;51.376;6.126;2023-05-14T10:46:13;101374.00;;;36.10
15626;BMP180;7912;51.376;6.126;2023-05-14T10:48:42;101369.00;;;36.30
15626;BMP180;7912;51.376;6.126;2023-05-14T10:51:11;101365.00;;;36.40
15626;BMP180;7912;51.376;6.126;2023-05-14T10:53:41;101358.00;;;36.60
15626;BMP180;7912;51.376;6.126;2023-05-14T10:56:11;101364.00;;;36.80
15626;BMP180;7912;51.376;6.126;2023-05-14T10:58:42;101356.00;;;37.00
15626;BMP180;7912;51.376;6.126;2023-05-14T11:01:12;101345.00;;;37.10
15626;BMP180;7912;51.376;6.126;2023-05-14T11:03:44;101358.00;;;36.90
15626;BMP180;7912;51.376;6.126;2023-05-14T11:06:14;101360.00;;;36.50
15626;BMP180;7912;51.376;6.126;2023-05-14T11:08:43;101360.00;;;35.80
15626;BMP180;7912;51.376;6.126;2023-05-14T11:11:10;101365.00;;;35.10
15626;BMP180;7912;51.376;6.126;2023-05-14T11:13:38;101359.00;;;35.20
15626;BMP180;7912;51.376;6.126;2023-05-14T11:16:05;101351.00;;;35.70
15626;BMP180;7912;51.376;6.126;2023-05-14T11:18:59;101342.00;;;36.60
15626;BMP180;7912;51.376;6.126;2023-05-14T11:21:28;101338.00;;;37.00
15626;BMP180;7912;51.376;6.126;2023-05-14T11:23:59;101343.00;;;36.30
15626;BMP180;7912;51.376;6.126;2023-05-14T11:26:26;101350.00;;;35.30
15626;BMP180;7912;51.376;6.126;2023-05-14T11:28:53;101340.00;;;34.10
15626;BMP180;7912;51.376;6.126;2023-05-14T11:31:21;101346.00;;;33.30
15626;BMP180;7912;51.376;6.126;2023-05-14T11:33:51;101357.00;;;32.70
15626;BMP180;7912;51.376;6.126;2023-05-14T11:36:19;101345.00;;;32.40
15626;BMP180;7912;51.376;6.126;2023-05-14T11:38:48;101339.00;;;32.50
15626;BMP180;7912;51.376;6.126;2023-05-14T11:41:20;101327.00;;;32.90
15626;BMP180;7912;51.376;6.126;2023-05-14T11:43:49;101331.00;;;33.10
15626;BMP180;7912;51.376;6.126;2023-05-14T11:46:17;101328.00;;;33.20
15626;BMP180;7912;51.376;6.126;2023-05-14T11:48:44;101329.00;;;32.90
15626;BMP180;7912;51.376;6.126;2023-05-14T11:51:12;101332.00;;;32.50
15626;BMP180;7912;51.376;6.126;2023-05-14T11:53:39;101330.00;;;32.40
15626;BMP180;7912;51.376;6.126;2023-05-14T11:56:06;101325.00;;;32.70
15626;BMP180;7912;51.376;6.126;2023-05-14T11:58:36;101321.00;;;32.80
15626;BMP180;7912;51.376;6.126;2023-05-14T12:01:03;101324.00;;;32.90
15626;BMP180;7912;51.376;6.126;2023-05-14T12:03:30;101320.00;;;33.00
15626;BMP180;7912;51.376;6.126;2023-05-14T12:06:00;101313.00;;;33.30
15626;BMP180;7912;51.376;6.126;2023-05-14T12:08:30;101328.00;;;33.30
15626;BMP180;7912;51.376;6.126;2023-05-14T12:10:59;101318.00;;;33.00
15626;BMP180;7912;51.376;6.126;2023-05-14T12:13:31;101326.00;;;32.70
15626;BMP180;7912;51.376;6.126;2023-05-14T12:16:00;101321.00;;;32.60
15626;BMP180;7912;51.376;6.126;2023-05-14T12:18:30;101323.00;;;32.80
15626;BMP180;7912;51.376;6.126;2023-05-14T12:21:03;101328.00;;;32.60
15626;BMP180;7912;51.376;6.126;2023-05-14T12:23:31;101326.00;;;32.20
15626;BMP180;7912;51.376;6.126;2023-05-14T12:26:04;101325.00;;;31.60
15626;BMP180;7912;51.376;6.126;2023-05-14T12:28:33;101323.00;;;31.10
15626;BMP180;7912;51.376;6.126;2023-05-14T12:31:04;101317.00;;;30.70
15626;BMP180;7912;51.376;6.126;2023-05-14T12:33:31;101318.00;;;30.30
15626;BMP180;7912;51.376;6.126;2023-05-14T12:35:59;101316.00;;;29.90
15626;BMP180;7912;51.376;6.126;2023-05-14T12:38:47;101312.00;;;29.60
15626;BMP180;7912;51.376;6.126;2023-05-14T12:41:14;101303.00;;;29.40
15626;BMP180;7912;51.376;6.126;2023-05-14T12:43:47;101308.00;;;29.20
15626;BMP180;7912;51.376;6.126;2023-05-14T12:46:15;101313.00;;;29.40
15626;BMP180;7912;51.376;6.126;2023-05-14T12:48:43;101297.00;;;29.80
15626;BMP180;7912;51.376;6.126;2023-05-14T12:51:10;101298.00;;;30.50
15626;BMP180;7912;51.376;6.126;2023-05-14T12:53:37;101291.00;;;31.50
15626;BMP180;7912;51.376;6.126;2023-05-14T12:56:05;101281.00;;;32.40
15626;BMP180;7912;51.376;6.126;2023-05-14T12:58:33;101279.00;;;32.70
15626;BMP180;7912;51.376;6.126;2023-05-14T13:01:00;101278.00;;;32.70
15626;BMP180;7912;51.376;6.126;2023-05-14T13:03:27;101280.00;;;32.60
15626;BMP180;7912;51.376;6.126;2023-05-14T13:05:54;101277.00;;;32.40
15626;BMP180;7912;51.376;6.126;2023-05-14T13:08:22;101281.00;;;32.20
15626;BMP180;7912;51.376;6.126;2023-05-14T13:10:53;101279.00;;;32.00
15626;BMP180;7912;51.376;6.126;2023-05-14T13:13:22;101276.00;;;32.00
15626;BMP180;7912;51.376;6.126;2023-05-14T13:15:49;101268.00;;;32.20
15626;BMP180;7912;51.376;6.126;2023-05-14T13:18:17;101260.00;;;32.50
15626;BMP180;7912;51.376;6.126;2023-05-14T13:20:46;101267.00;;;32.80
15626;BMP180;7912;51.376;6.126;2023-05-14T13:23:13;101261.00;;;32.90
15626;BMP180;7912;51.376;6.126;2023-05-14T13:25:41;101259.00;;;33.00
15626;BMP180;7912;51.376;6.126;2023-05-14T13:28:08;101260.00;;;33.20
15626;BMP180;7912;51.376;6.126;2023-05-14T13:30:36;101248.00;;;33.30
15626;BMP180;7912;51.376;6.126;2023-05-14T13:33:04;101251.00;;;33.40
15626;BMP180;7912;51.376;6.126;2023-05-14T13:35:32;101250.00;;;33.50
15626;BMP180;7912;51.376;6.126;2023-05-14T13:38:00;101253.00;;;33.20
15626;BMP180;7912;51.376;6.126;2023-05-14T13:40:27;101253.00;;;32.90
15626;BMP180;7912;51.376;6.126;2023-05-14T13:42:54;101251.00;;;32.60
15626;BMP180;7912;51.376;6.126;2023-05-14T13:45:22;101240.00;;;32.50
15626;BMP180;7912;51.376;6.126;2023-05-14T13:47:49;101246.00;;;32.50
15626;BMP180;7912;51.376;6.126;2023-05-14T13:50:18;101241.00;;;32.50
15626;BMP180;7912;51.376;6.126;2023-05-14T13:52:45;101250.00;;;32.30
15626;BMP180;7912;51.376;6.126;2023-05-14T13:55:12;101237.00;;;32.20
15626;BMP180;7912;51.376;6.126;2023-05-14T13:57:39;101245.00;;;32.00
15626;BMP180;7912;51.376;6.126;2023-05-14T14:00:09;101233.00;;;31.70
15626;BMP180;7912;51.376;6.126;2023-05-14T14:02:36;101238.00;;;31.50
15626;BMP180;7912;51.376;6.126;2023-05-14T14:05:04;101243.00;;;31.20
15626;BMP180;7912;51.376;6.126;2023-05-14T14:07:32;101233.00;;;30.90
15626;BMP180;7912;51.376;6.126;2023-05-14T14:09:59;101238.00;;;30.70
15626;BMP180;7912;51.376;6.126;2023-05-14T14:12:27;101242.00;;;30.50
15626;BMP180;7912;51.376;6.126;2023-05-14T14:14:54;101235.00;;;30.40
15626;BMP180;7912;51.376;6.126;2023-05-14T14:17:22;101227.00;;;30.40
15626;BMP180;7912;51.376;6.126;2023-05-14T14:19:49;101227.00;;;30.30